createdAt,value
2023-01-31T00:01:30.079Z,6.60
2023-01-31T00:04:02.557Z,6.60
2023-01-31T00:06:35.321Z,6.60
2023-01-31T00:09:03.265Z,6.60
2023-01-31T00:11:31.188Z,6.70
2023-01-31T00:13:59.287Z,6.70
2023-01-31T00:16:26.775Z,6.70
2023-01-31T00:18:53.783Z,6.60
2023-01-31T00:21:22.047Z,6.60
2023-01-31T00:23:50.264Z,6.70
2023-01-31T00:26:29.764Z,6.70
2023-01-31T00:28:57.943Z,6.60
2023-01-31T00:31:26.721Z,6.60
2023-01-31T00:33:56.371Z,6.60
2023-01-31T00:36:25.731Z,6.60
2023-01-31T00:38:54.149Z,6.60
2023-01-31T00:41:22.518Z,6.60
2023-01-31T00:43:50.372Z,6.60
2023-01-31T00:46:18.079Z,6.50
2023-01-31T00:48:44.827Z,6.50
2023-01-31T00:51:12.011Z,6.50
2023-01-31T00:53:39.185Z,6.50
2023-01-31T00:56:13.085Z,6.50
2023-01-31T00:58:39.926Z,6.50
2023-01-31T01:01:29.239Z,6.50
2023-01-31T01:03:57.722Z,6.50
2023-01-31T01:06:25.653Z,6.30
2023-01-31T01:08:53.424Z,6.30
2023-01-31T01:11:28.952Z,6.20
2023-01-31T01:13:56.577Z,6.20
2023-01-31T01:16:31.701Z,6.10
2023-01-31T01:18:58.542Z,6.10
2023-01-31T01:21:28.036Z,6.10
2023-01-31T01:23:57.494Z,6.10
2023-01-31T01:26:26.615Z,6.20
2023-01-31T01:28:54.852Z,6.20
2023-01-31T01:31:22.443Z,6.20
2023-01-31T01:33:49.873Z,6.30
2023-01-31T01:36:20.576Z,6.30
2023-01-31T01:38:47.574Z,6.20
2023-01-31T01:41:15.678Z,6.20
2023-01-31T01:43:56.481Z,6.20
2023-01-31T01:46:42.182Z,6.20
2023-01-31T01:49:32.406Z,6.20
2023-01-31T01:52:03.142Z,6.10
2023-01-31T01:55:04.101Z,6.20
2023-01-31T01:57:38.289Z,6.10
2023-01-31T02:00:14.884Z,6.10
2023-01-31T02:02:44.225Z,6.10
2023-01-31T02:05:15.935Z,6.10
2023-01-31T02:07:43.202Z,6.10
2023-01-31T02:10:24.239Z,6.10
2023-01-31T02:12:51.831Z,6.10
2023-01-31T02:15:19.095Z,6.10
2023-01-31T02:17:46.187Z,6.10
2023-01-31T02:20:24.131Z,6.20
2023-01-31T02:23:00.785Z,6.10
2023-01-31T02:25:52.158Z,6.10
2023-01-31T02:29:05.381Z,6.10
2023-01-31T02:31:54.779Z,6.10
2023-01-31T02:34:55.246Z,6.00
2023-01-31T02:38:03.389Z,6.00
2023-01-31T02:40:56.318Z,6.10
2023-01-31T02:44:19.106Z,6.10
2023-01-31T02:47:10.802Z,6.10
2023-01-31T02:49:39.785Z,6.10
2023-01-31T02:52:37.112Z,6.00
2023-01-31T02:55:27.259Z,6.00
2023-01-31T02:57:57.393Z,6.00
2023-01-31T03:00:25.496Z,6.00
2023-01-31T03:02:52.716Z,6.00
2023-01-31T03:05:20.771Z,5.90
2023-01-31T03:07:52.677Z,5.90
2023-01-31T03:10:26.660Z,6.00
2023-01-31T03:13:20.823Z,6.00
2023-01-31T03:16:18.906Z,6.00
2023-01-31T03:19:16.704Z,5.90
2023-01-31T03:22:12.097Z,5.80
2023-01-31T03:24:40.407Z,5.80
2023-01-31T03:27:07.487Z,5.70
2023-01-31T03:29:38.380Z,5.80
2023-01-31T03:32:14.079Z,5.70
2023-01-31T03:34:40.994Z,5.70
2023-01-31T03:37:17.880Z,5.70
2023-01-31T03:40:24.217Z,5.60
2023-01-31T03:42:57.693Z,5.60
2023-01-31T03:45:44.035Z,5.50
2023-01-31T03:48:17.782Z,5.50
2023-01-31T03:51:04.769Z,5.50
2023-01-31T03:53:37.334Z,5.50
2023-01-31T03:56:05.984Z,5.50
2023-01-31T03:58:37.815Z,5.40
2023-01-31T04:01:08.200Z,5.40
2023-01-31T04:03:43.530Z,5.40
2023-01-31T04:06:12.261Z,5.40
2023-01-31T04:08:39.459Z,5.30
2023-01-31T04:11:10.146Z,5.30
2023-01-31T04:13:36.967Z,5.30
2023-01-31T04:16:04.065Z,5.30
2023-01-31T04:18:31.096Z,5.30
2023-01-31T04:20:57.837Z,5.30
2023-01-31T04:23:26.513Z,5.30
2023-01-31T04:25:54.994Z,5.30
2023-01-31T04:28:22.326Z,5.30
2023-01-31T04:30:56.538Z,5.20
2023-01-31T04:33:23.879Z,5.20
2023-01-31T04:35:53.537Z,5.10
2023-01-31T04:38:20.328Z,5.20
2023-01-31T04:40:47.172Z,5.10
2023-01-31T04:43:13.927Z,5.20
2023-01-31T04:45:40.662Z,5.10
2023-01-31T04:48:07.749Z,5.10
2023-01-31T04:50:34.559Z,5.10
2023-01-31T04:53:01.354Z,5.10
2023-01-31T04:55:28.435Z,5.10
2023-01-31T04:57:55.204Z,5.10
2023-01-31T05:00:22.175Z,5.10
2023-01-31T05:02:50.032Z,5.10
2023-01-31T05:05:17.022Z,5.10
2023-01-31T05:07:44.835Z,5.10
2023-01-31T05:10:11.873Z,5.10
2023-01-31T05:12:39.015Z,5.00
2023-01-31T05:15:11.074Z,5.10
2023-01-31T05:17:38.623Z,5.10
2023-01-31T05:20:06.482Z,5.10
2023-01-31T05:22:33.923Z,5.20
2023-01-31T05:25:00.637Z,5.20
2023-01-31T05:27:27.463Z,5.20
2023-01-31T05:29:54.876Z,5.20
2023-01-31T05:32:21.849Z,5.20
2023-01-31T05:34:48.573Z,5.20
2023-01-31T05:37:15.382Z,5.20
2023-01-31T05:39:42.222Z,5.20
2023-01-31T05:42:08.958Z,5.30
2023-01-31T05:44:35.689Z,5.30
2023-01-31T05:47:02.593Z,5.40
2023-01-31T05:49:33.311Z,5.40
2023-01-31T05:52:01.101Z,5.40
2023-01-31T05:54:27.978Z,5.50
2023-01-31T05:56:54.742Z,5.60
2023-01-31T05:59:21.434Z,5.60
2023-01-31T06:01:48.305Z,5.60
2023-01-31T06:04:15.099Z,5.70
2023-01-31T06:06:42.543Z,5.60
2023-01-31T06:09:09.376Z,5.60
2023-01-31T06:11:36.109Z,5.60
2023-01-31T06:14:02.981Z,5.60
2023-01-31T06:16:29.880Z,5.50
2023-01-31T06:18:57.135Z,5.60
2023-01-31T06:21:24.040Z,5.60
2023-01-31T06:23:50.780Z,5.60
2023-01-31T06:26:17.597Z,5.60
2023-01-31T06:28:46.193Z,5.60
2023-01-31T06:31:13.553Z,5.60
2023-01-31T06:33:46.802Z,5.50
2023-01-31T06:36:18.106Z,5.60
2023-01-31T06:38:49.309Z,5.60
2023-01-31T06:41:16.330Z,5.60
2023-01-31T06:43:43.032Z,5.60
2023-01-31T06:46:09.759Z,5.60
2023-01-31T06:48:36.588Z,5.60
2023-01-31T06:51:03.340Z,5.60
2023-01-31T06:53:30.413Z,5.70
2023-01-31T06:55:57.520Z,5.70
2023-01-31T06:58:24.316Z,5.70
2023-01-31T07:00:51.049Z,5.70
2023-01-31T07:03:19.433Z,5.80
2023-01-31T07:05:46.587Z,5.90
2023-01-31T07:08:14.636Z,5.90
2023-01-31T07:10:41.440Z,5.90
2023-01-31T07:13:08.172Z,6.00
2023-01-31T07:15:34.911Z,6.00
2023-01-31T07:18:01.781Z,5.90
2023-01-31T07:20:28.532Z,6.00
2023-01-31T07:22:57.071Z,6.00
2023-01-31T07:25:24.745Z,6.00
2023-01-31T07:27:51.632Z,6.10
2023-01-31T07:30:18.724Z,6.10
2023-01-31T07:32:45.759Z,6.10
2023-01-31T07:35:12.525Z,6.10
2023-01-31T07:37:41.641Z,6.10
2023-01-31T07:40:09.452Z,6.20
2023-01-31T07:42:36.300Z,6.30
2023-01-31T07:45:20.926Z,6.30
2023-01-31T07:47:49.584Z,6.30
2023-01-31T07:50:16.511Z,6.40
2023-01-31T07:52:43.268Z,6.40
2023-01-31T07:55:10.190Z,6.40
2023-01-31T07:57:36.958Z,6.50
2023-01-31T08:00:04.534Z,6.50
2023-01-31T08:02:49.879Z,6.50
2023-01-31T08:05:16.827Z,6.50
2023-01-31T08:07:43.584Z,6.50
2023-01-31T08:10:10.925Z,6.60
2023-01-31T08:12:37.609Z,6.60
2023-01-31T08:15:04.786Z,6.60
2023-01-31T08:17:32.913Z,6.70
2023-01-31T08:19:59.692Z,6.60
2023-01-31T08:22:26.381Z,6.60
2023-01-31T08:24:53.195Z,6.70
2023-01-31T08:27:20.084Z,6.70
2023-01-31T08:29:46.845Z,6.80
2023-01-31T08:32:13.739Z,6.70
2023-01-31T08:34:40.412Z,6.70
2023-01-31T08:37:07.119Z,6.70
2023-01-31T08:39:33.936Z,6.70
2023-01-31T08:42:00.767Z,6.80
2023-01-31T08:44:27.545Z,6.90
2023-01-31T08:46:54.456Z,6.90
2023-01-31T08:49:21.174Z,6.90
2023-01-31T08:51:48.103Z,6.90
2023-01-31T08:54:16.165Z,7.00
2023-01-31T08:56:43.318Z,7.00
2023-01-31T08:59:11.606Z,7.00
2023-01-31T09:01:42.465Z,7.00
2023-01-31T09:04:09.314Z,7.00
2023-01-31T09:06:36.099Z,7.00
2023-01-31T09:09:03.493Z,7.10
2023-01-31T09:11:30.798Z,7.10
2023-01-31T09:13:58.059Z,7.10
2023-01-31T09:16:25.003Z,7.10
2023-01-31T09:18:53.573Z,7.10
2023-01-31T09:21:21.917Z,7.10
2023-01-31T09:23:49.406Z,7.00
2023-01-31T09:26:16.960Z,7.10
2023-01-31T09:28:43.890Z,7.10
2023-01-31T09:31:13.647Z,7.20
2023-01-31T09:33:41.047Z,7.20
2023-01-31T09:36:18.851Z,7.30
2023-01-31T09:38:46.017Z,7.20
2023-01-31T09:41:34.573Z,7.30
2023-01-31T09:44:15.974Z,7.30
2023-01-31T09:46:47.748Z,7.30
2023-01-31T09:49:20.973Z,7.40
2023-01-31T09:51:52.613Z,7.40
2023-01-31T09:54:29.532Z,7.40
2023-01-31T09:57:04.753Z,7.40
2023-01-31T09:59:46.612Z,7.40
2023-01-31T10:02:28.365Z,7.40
2023-01-31T10:05:18.437Z,7.40
2023-01-31T10:08:05.401Z,7.40
2023-01-31T10:10:52.602Z,7.50
2023-01-31T10:13:38.991Z,7.60
2023-01-31T10:16:24.643Z,7.40
2023-01-31T10:18:57.620Z,7.50
2023-01-31T10:21:32.836Z,7.50
2023-01-31T10:24:05.665Z,7.40
2023-01-31T10:26:37.177Z,7.50
2023-01-31T10:29:29.204Z,7.60
2023-01-31T10:32:02.397Z,7.60
2023-01-31T10:34:34.773Z,7.70
2023-01-31T10:37:07.493Z,7.70
2023-01-31T10:39:40.675Z,7.70
2023-01-31T10:42:34.738Z,7.70
2023-01-31T10:45:18.200Z,7.80
2023-01-31T10:47:49.483Z,7.70
2023-01-31T10:50:30.796Z,7.70
2023-01-31T10:53:14.862Z,7.70
2023-01-31T10:56:16.106Z,7.70
2023-01-31T10:58:43.493Z,7.70
2023-01-31T11:01:15.133Z,7.80
2023-01-31T11:03:52.799Z,8.00
2023-01-31T11:06:21.011Z,8.00
2023-01-31T11:09:01.605Z,8.10
2023-01-31T11:11:29.528Z,8.00
2023-01-31T11:13:59.126Z,8.10
2023-01-31T11:16:32.410Z,8.20
2023-01-31T11:19:02.034Z,8.30
2023-01-31T11:21:35.817Z,8.40
2023-01-31T11:24:06.881Z,8.20
2023-01-31T11:26:53.284Z,8.30
2023-01-31T11:29:30.414Z,8.30
2023-01-31T11:32:00.010Z,8.30
2023-01-31T11:34:31.996Z,8.30
2023-01-31T11:37:14.151Z,8.40
2023-01-31T11:39:41.278Z,8.50
2023-01-31T11:42:17.291Z,8.60
2023-01-31T11:45:01.132Z,8.60
2023-01-31T11:47:39.465Z,8.70
2023-01-31T11:50:06.841Z,8.70
2023-01-31T11:52:34.878Z,8.70
2023-01-31T11:55:07.671Z,8.70
2023-01-31T11:57:39.673Z,8.70
2023-01-31T12:00:20.676Z,8.80
2023-01-31T12:03:08.855Z,8.70
2023-01-31T12:05:42.652Z,8.70
2023-01-31T12:08:50.795Z,8.70
2023-01-31T12:11:27.261Z,8.70
2023-01-31T12:14:02.483Z,8.60
2023-01-31T12:16:31.167Z,8.60
2023-01-31T12:19:12.986Z,8.60
2023-01-31T12:22:12.351Z,8.60
2023-01-31T12:24:41.945Z,8.70
2023-01-31T12:27:32.949Z,8.70
2023-01-31T12:30:15.084Z,8.80
2023-01-31T12:33:13.099Z,8.60
2023-01-31T12:36:03.754Z,8.60
2023-01-31T12:38:51.385Z,8.50
2023-01-31T12:41:53.965Z,8.30
2023-01-31T12:44:44.045Z,8.30
2023-01-31T12:47:29.246Z,8.40
2023-01-31T12:50:01.422Z,8.40
2023-01-31T12:52:46.005Z,8.40
2023-01-31T12:55:35.618Z,8.40
2023-01-31T12:58:40.488Z,8.40
2023-01-31T13:01:20.059Z,8.30
2023-01-31T13:04:20.793Z,8.40
2023-01-31T13:06:58.607Z,8.40
2023-01-31T13:09:32.264Z,8.40
2023-01-31T13:12:09.258Z,8.40
2023-01-31T13:14:49.995Z,8.30
2023-01-31T13:17:26.738Z,8.20
2023-01-31T13:20:00.297Z,8.30
2023-01-31T13:22:29.087Z,8.30
2023-01-31T13:25:02.090Z,8.30
2023-01-31T13:27:38.221Z,8.40
2023-01-31T13:30:11.619Z,8.50
2023-01-31T13:32:43.282Z,8.40
2023-01-31T13:35:18.873Z,8.30
2023-01-31T13:37:50.230Z,8.20
2023-01-31T13:40:21.492Z,8.20
2023-01-31T13:42:49.733Z,8.20
2023-01-31T13:45:31.422Z,8.20
2023-01-31T13:48:08.989Z,8.10
2023-01-31T13:50:42.241Z,8.20
2023-01-31T13:53:26.114Z,8.20
2023-01-31T13:55:53.653Z,8.10
2023-01-31T13:58:24.404Z,8.20
2023-01-31T14:01:02.028Z,8.20
2023-01-31T14:03:28.796Z,8.10
2023-01-31T14:06:01.242Z,8.10
2023-01-31T14:08:35.642Z,8.10
2023-01-31T14:11:25.348Z,7.90
2023-01-31T14:14:09.962Z,7.90
2023-01-31T14:16:46.023Z,7.80
2023-01-31T14:19:18.740Z,7.90
2023-01-31T14:22:03.568Z,7.90
2023-01-31T14:24:55.911Z,7.90
2023-01-31T14:27:26.698Z,7.80
2023-01-31T14:30:05.794Z,7.80
2023-01-31T14:32:58.002Z,7.90
2023-01-31T14:36:03.813Z,7.80
2023-01-31T14:38:49.271Z,7.80
2023-01-31T14:41:43.797Z,7.80
2023-01-31T14:44:13.576Z,7.80
2023-01-31T14:47:08.483Z,7.70
2023-01-31T14:49:53.828Z,7.80
2023-01-31T14:52:50.447Z,7.80
2023-01-31T14:55:37.390Z,7.90
2023-01-31T14:58:06.080Z,7.90
2023-01-31T15:00:38.885Z,7.90
2023-01-31T15:03:07.816Z,7.90
2023-01-31T15:05:37.655Z,7.90
2023-01-31T15:08:13.422Z,7.90
2023-01-31T15:11:41.498Z,7.90
2023-01-31T15:14:49.267Z,7.90
2023-01-31T15:17:35.977Z,7.80
2023-01-31T15:20:15.197Z,7.80
2023-01-31T15:22:44.138Z,7.80
2023-01-31T15:25:34.335Z,7.70
2023-01-31T15:28:02.576Z,7.80
2023-01-31T15:30:34.040Z,7.70
2023-01-31T15:33:02.734Z,7.70
2023-01-31T15:35:37.199Z,7.80
2023-01-31T15:38:19.307Z,7.70
2023-01-31T15:40:46.062Z,7.70
2023-01-31T15:43:24.144Z,7.70
2023-01-31T15:45:52.590Z,7.70
2023-01-31T15:48:22.164Z,7.60
2023-01-31T15:50:57.474Z,7.60
2023-01-31T15:53:27.968Z,7.60
2023-01-31T15:55:58.734Z,7.60
2023-01-31T15:58:28.223Z,7.50
2023-01-31T16:00:57.585Z,7.60
2023-01-31T16:03:29.748Z,7.70
2023-01-31T16:05:58.420Z,7.70
2023-01-31T16:08:43.259Z,7.70
2023-01-31T16:11:10.580Z,7.70
2023-01-31T16:13:41.186Z,7.70
2023-01-31T16:16:10.644Z,7.60
2023-01-31T16:18:38.376Z,7.70
2023-01-31T16:21:31.161Z,7.70
2023-01-31T16:24:11.803Z,7.60
2023-01-31T16:26:40.835Z,7.70
2023-01-31T16:29:14.197Z,7.70
2023-01-31T16:31:52.671Z,7.80
2023-01-31T16:34:28.539Z,7.70
2023-01-31T16:37:20.340Z,7.80
2023-01-31T16:39:50.554Z,7.80
2023-01-31T16:42:22.168Z,7.80
2023-01-31T16:44:50.320Z,7.80
2023-01-31T16:47:50.751Z,7.80
2023-01-31T16:50:17.444Z,7.80
2023-01-31T16:52:45.709Z,7.90
2023-01-31T16:55:15.953Z,7.90
2023-01-31T16:57:42.766Z,7.90
2023-01-31T17:00:34.189Z,7.90
2023-01-31T17:03:02.194Z,8.00
2023-01-31T17:05:38.474Z,7.90
2023-01-31T17:08:05.881Z,7.90
2023-01-31T17:10:35.772Z,8.00
2023-01-31T17:13:12.844Z,8.00
2023-01-31T17:15:40.611Z,8.00
2023-01-31T17:18:09.598Z,8.10
2023-01-31T17:20:36.494Z,8.00
2023-01-31T17:23:03.818Z,8.00
2023-01-31T17:25:35.014Z,8.10
2023-01-31T17:28:01.911Z,8.00
2023-01-31T17:30:30.560Z,8.10
2023-01-31T17:32:58.481Z,8.00
2023-01-31T17:35:49.052Z,8.10
2023-01-31T17:38:15.823Z,8.10
2023-01-31T17:40:43.869Z,8.20
2023-01-31T17:43:17.057Z,8.10
2023-01-31T17:45:43.763Z,8.10
2023-01-31T17:48:14.389Z,8.20
2023-01-31T17:50:46.317Z,8.20
2023-01-31T17:53:13.880Z,8.10
2023-01-31T17:55:41.861Z,8.20
2023-01-31T17:58:18.079Z,8.20
2023-01-31T18:00:46.741Z,8.20
2023-01-31T18:03:31.979Z,8.20
2023-01-31T18:06:06.875Z,8.20
2023-01-31T18:08:35.034Z,8.10
2023-01-31T18:11:13.918Z,8.10
2023-01-31T18:13:41.682Z,8.20
2023-01-31T18:16:10.100Z,8.30
2023-01-31T18:18:40.390Z,8.20
2023-01-31T18:21:11.720Z,8.30
2023-01-31T18:23:38.671Z,8.20
2023-01-31T18:26:07.034Z,8.30
2023-01-31T18:28:34.040Z,8.20
2023-01-31T18:31:05.405Z,8.20
2023-01-31T18:33:32.930Z,8.20
2023-01-31T18:36:01.135Z,8.20
2023-01-31T18:38:29.579Z,8.30
2023-01-31T18:40:56.670Z,8.30
2023-01-31T18:43:23.785Z,8.30
2023-01-31T18:45:50.480Z,8.30
2023-01-31T18:48:17.414Z,8.30
2023-01-31T18:50:44.216Z,8.40
2023-01-31T18:53:11.027Z,8.40
2023-01-31T18:55:37.774Z,8.40
2023-01-31T18:58:04.550Z,8.40
2023-01-31T19:00:31.301Z,8.30
2023-01-31T19:02:58.597Z,8.40
2023-01-31T19:05:25.902Z,8.40
2023-01-31T19:07:53.903Z,8.30
2023-01-31T19:10:20.683Z,8.20
2023-01-31T19:12:48.039Z,8.20
2023-01-31T19:15:14.805Z,8.20
2023-01-31T19:17:41.498Z,8.20
2023-01-31T19:20:08.970Z,8.20
2023-01-31T19:22:36.049Z,8.20
2023-01-31T19:25:05.398Z,8.20
2023-01-31T19:27:32.183Z,8.20
2023-01-31T19:29:59.950Z,8.20
2023-01-31T19:32:29.057Z,8.10
2023-01-31T19:34:55.889Z,8.20
2023-01-31T19:37:22.648Z,8.10
2023-01-31T19:39:49.444Z,8.10
2023-01-31T19:42:16.238Z,8.00
2023-01-31T19:44:42.998Z,8.00
2023-01-31T19:47:09.698Z,8.00
2023-01-31T19:49:36.366Z,8.00
2023-01-31T19:52:03.216Z,8.00
2023-01-31T19:54:30.036Z,7.90
2023-01-31T19:56:56.822Z,7.90
2023-01-31T19:59:23.490Z,7.80
2023-01-31T20:01:50.361Z,7.80
2023-01-31T20:04:17.086Z,7.70
2023-01-31T20:06:43.913Z,7.60
2023-01-31T20:09:15.980Z,7.60
2023-01-31T20:11:42.704Z,7.60
2023-01-31T20:14:09.595Z,7.60
2023-01-31T20:16:36.544Z,7.70
2023-01-31T20:19:03.835Z,7.80
2023-01-31T20:21:30.613Z,7.80
2023-01-31T20:23:57.284Z,7.80
2023-01-31T20:26:24.680Z,7.90
2023-01-31T20:28:51.529Z,7.90
2023-01-31T20:31:18.872Z,7.90
2023-01-31T20:33:45.835Z,7.80
2023-01-31T20:36:13.170Z,7.80
2023-01-31T20:38:40.438Z,7.70
2023-01-31T20:41:08.568Z,7.50
2023-01-31T20:43:36.065Z,7.40
2023-01-31T20:46:12.008Z,7.20
2023-01-31T20:48:40.091Z,7.10
2023-01-31T20:51:07.284Z,7.00
2023-01-31T20:53:34.177Z,6.90
2023-01-31T20:56:07.003Z,6.80
2023-01-31T20:58:36.992Z,6.90
2023-01-31T21:01:06.413Z,7.00
2023-01-31T21:03:34.132Z,6.90
2023-01-31T21:06:02.056Z,7.00
2023-01-31T21:08:29.441Z,7.10
2023-01-31T21:10:58.416Z,7.20
2023-01-31T21:13:28.727Z,7.20
2023-01-31T21:15:58.126Z,7.30
2023-01-31T21:18:27.600Z,7.40
2023-01-31T21:20:54.694Z,7.50
2023-01-31T21:23:21.698Z,7.50
2023-01-31T21:25:48.800Z,7.60
2023-01-31T21:28:15.575Z,7.70
2023-01-31T21:30:42.432Z,7.70
2023-01-31T21:33:09.245Z,7.80
2023-01-31T21:35:35.929Z,7.80
2023-01-31T21:38:02.652Z,7.80
2023-01-31T21:40:29.429Z,7.90
2023-01-31T21:42:56.095Z,7.80
2023-01-31T21:45:39.415Z,7.80
2023-01-31T21:48:26.368Z,7.90
2023-01-31T21:50:53.152Z,7.90
2023-01-31T21:53:20.274Z,7.90
2023-01-31T21:55:47.013Z,7.90
2023-01-31T21:58:13.773Z,7.90
2023-01-31T22:00:43.667Z,7.90
2023-01-31T22:03:11.015Z,7.90
2023-01-31T22:05:37.914Z,7.90
2023-01-31T22:08:05.016Z,7.90
2023-01-31T22:10:31.739Z,7.90
2023-01-31T22:12:58.443Z,7.90
2023-01-31T22:15:25.261Z,7.80
2023-01-31T22:17:52.845Z,7.90
2023-01-31T22:20:20.399Z,7.90
2023-01-31T22:22:48.591Z,7.90
2023-01-31T22:25:15.540Z,7.90
2023-01-31T22:27:42.416Z,7.90
2023-01-31T22:30:16.164Z,7.90
2023-01-31T22:32:43.594Z,7.90
2023-01-31T22:35:10.847Z,7.90
2023-01-31T22:37:37.651Z,7.90
2023-01-31T22:40:04.921Z,7.90
2023-01-31T22:42:31.694Z,7.90
2023-01-31T22:44:58.400Z,8.00
2023-01-31T22:47:25.145Z,7.90
2023-01-31T22:49:51.848Z,7.90
2023-01-31T22:52:18.582Z,7.90
2023-01-31T22:54:45.262Z,7.90
2023-01-31T22:57:12.005Z,8.00
2023-01-31T22:59:38.727Z,8.00
2023-01-31T23:02:05.755Z,8.00
2023-01-31T23:04:32.536Z,8.00
2023-01-31T23:06:59.318Z,8.00
2023-01-31T23:09:26.038Z,8.00
2023-01-31T23:11:52.822Z,8.00
2023-01-31T23:14:20.088Z,8.00
2023-01-31T23:17:05.270Z,8.10
2023-01-31T23:19:31.999Z,8.00
2023-01-31T23:21:58.739Z,8.10
2023-01-31T23:24:25.446Z,8.00
2023-01-31T23:26:54.376Z,8.00
2023-01-31T23:29:21.152Z,8.00
2023-01-31T23:31:48.003Z,8.10
2023-01-31T23:34:14.928Z,8.00
2023-01-31T23:36:41.645Z,8.00
2023-01-31T23:39:09.817Z,8.00
2023-01-31T23:41:36.573Z,8.00
2023-01-31T23:44:03.577Z,8.00
2023-01-31T23:46:30.545Z,8.00
2023-01-31T23:48:57.276Z,8.00
2023-01-31T23:51:24.016Z,8.00
2023-01-31T23:53:50.853Z,8.00
2023-01-31T23:56:17.563Z,8.00
2023-01-31T23:58:44.631Z,8.00
